createdAt,value
2022-11-19T00:01:03.802Z,18.13
2022-11-19T00:03:33.266Z,18.03
2022-11-19T00:06:06.603Z,19.43
2022-11-19T00:08:34.664Z,17.40
2022-11-19T00:11:09.758Z,16.55
2022-11-19T00:13:36.736Z,17.77
2022-11-19T00:16:06.433Z,17.93
2022-11-19T00:18:34.093Z,18.30
2022-11-19T00:21:08.639Z,18.67
2022-11-19T00:23:36.350Z,18.43
2022-11-19T00:26:08.771Z,17.73
2022-11-19T00:28:36.711Z,18.00
2022-11-19T00:31:06.670Z,17.08
2022-11-19T00:33:34.516Z,18.27
2022-11-19T00:36:03.084Z,18.23
2022-11-19T00:38:32.831Z,16.77
2022-11-19T00:41:00.465Z,18.53
2022-11-19T00:43:45.494Z,17.10
2022-11-19T00:46:13.795Z,17.90
2022-11-19T00:48:41.656Z,17.17
2022-11-19T00:51:10.282Z,16.67
2022-11-19T00:53:39.543Z,15.63
2022-11-19T00:56:09.520Z,17.13
2022-11-19T00:58:37.725Z,16.43
2022-11-19T01:01:06.537Z,17.38
2022-11-19T01:06:02.159Z,16.57
2022-11-19T01:08:29.984Z,18.10
2022-11-19T01:11:05.516Z,17.90
2022-11-19T01:13:36.024Z,16.77
2022-11-19T01:16:06.666Z,17.70
2022-11-19T01:18:34.903Z,17.53
2022-11-19T01:21:02.651Z,16.92
2022-11-19T01:23:30.291Z,17.60
2022-11-19T01:25:59.240Z,18.30
2022-11-19T01:28:26.841Z,18.10
2022-11-19T01:30:54.510Z,19.07
2022-11-19T01:33:22.770Z,18.37
2022-11-19T01:35:58.258Z,16.98
2022-11-19T01:38:26.218Z,18.10
2022-11-19T01:40:53.929Z,18.15
2022-11-19T01:43:41.491Z,18.27
2022-11-19T01:46:10.031Z,18.30
2022-11-19T01:48:42.034Z,18.90
2022-11-19T01:51:13.537Z,18.27
2022-11-19T01:53:41.701Z,18.97
2022-11-19T01:56:10.072Z,19.27
2022-11-19T01:58:41.988Z,20.90
2022-11-19T02:01:11.700Z,18.77
2022-11-19T02:03:40.454Z,19.97
2022-11-19T02:06:09.054Z,21.30
2022-11-19T02:08:40.070Z,21.42
2022-11-19T02:11:23.088Z,21.33
2022-11-19T02:14:00.552Z,21.70
2022-11-19T02:16:35.324Z,21.47
2022-11-19T02:19:18.552Z,23.47
2022-11-19T02:21:57.555Z,22.50
2022-11-19T02:24:41.935Z,22.83
2022-11-19T02:27:41.324Z,23.00
2022-11-19T02:30:13.230Z,22.07
2022-11-19T02:32:50.460Z,21.87
2022-11-19T02:35:25.281Z,22.33
2022-11-19T02:38:00.560Z,23.30
2022-11-19T02:40:32.379Z,23.50
2022-11-19T02:43:09.862Z,23.03
2022-11-19T02:45:44.213Z,22.47
2022-11-19T02:48:15.372Z,22.60
2022-11-19T02:50:46.070Z,24.13
2022-11-19T02:53:13.749Z,22.50
2022-11-19T02:55:41.688Z,24.03
2022-11-19T02:58:32.011Z,23.88
2022-11-19T03:01:21.498Z,22.63
2022-11-19T03:04:07.840Z,23.20
2022-11-19T03:06:36.298Z,25.03
2022-11-19T03:09:04.956Z,26.02
2022-11-19T03:11:33.870Z,24.40
2022-11-19T03:17:00.047Z,24.33
2022-11-19T03:19:35.019Z,24.30
2022-11-19T03:22:08.112Z,24.60
2022-11-19T03:24:41.271Z,24.97
2022-11-19T03:27:13.438Z,24.77
2022-11-19T03:29:44.837Z,25.33
2022-11-19T03:32:17.608Z,23.93
2022-11-19T03:34:47.772Z,24.53
2022-11-19T03:37:18.551Z,23.43
2022-11-19T03:39:48.589Z,23.43
2022-11-19T03:42:19.670Z,22.70
2022-11-19T03:44:51.130Z,23.73
2022-11-19T03:47:23.708Z,24.07
2022-11-19T03:49:55.245Z,24.23
2022-11-19T03:52:22.919Z,23.17
2022-11-19T03:54:50.920Z,22.60
2022-11-19T03:57:23.482Z,22.13
2022-11-19T03:59:51.020Z,21.63
2022-11-19T04:02:20.276Z,21.30
2022-11-19T04:04:47.993Z,22.30
2022-11-19T04:07:17.152Z,22.30
2022-11-19T04:09:45.039Z,22.27
2022-11-19T04:12:17.885Z,22.77
2022-11-19T04:14:45.757Z,22.70
2022-11-19T04:17:13.440Z,19.83
2022-11-19T04:19:42.892Z,21.03
2022-11-19T04:22:10.637Z,20.33
2022-11-19T04:24:38.313Z,22.23
2022-11-19T04:27:06.024Z,21.30
2022-11-19T04:29:33.617Z,22.17
2022-11-19T04:32:01.327Z,20.93
2022-11-19T04:34:28.920Z,18.70
2022-11-19T04:36:58.014Z,20.43
2022-11-19T04:39:25.607Z,20.13
2022-11-19T04:41:53.342Z,20.20
2022-11-19T04:44:20.894Z,20.43
2022-11-19T04:46:48.656Z,20.97
2022-11-19T04:49:16.346Z,20.43
2022-11-19T04:51:44.094Z,19.70
2022-11-19T04:54:13.312Z,19.97
2022-11-19T04:56:40.896Z,22.33
2022-11-19T04:59:08.683Z,19.23
2022-11-19T05:01:36.366Z,19.90
2022-11-19T05:04:04.027Z,20.77
2022-11-19T05:06:31.662Z,21.33
2022-11-19T05:08:59.293Z,20.47
2022-11-19T05:11:28.378Z,21.60
2022-11-19T05:13:56.005Z,20.23
2022-11-19T05:16:23.625Z,20.27
2022-11-19T05:18:51.235Z,20.53
2022-11-19T05:21:18.866Z,18.90
2022-11-19T05:23:46.414Z,19.93
2022-11-19T05:26:14.071Z,20.60
2022-11-19T05:28:43.055Z,20.90
2022-11-19T05:31:10.708Z,21.00
2022-11-19T05:33:38.327Z,20.07
2022-11-19T05:36:06.793Z,19.23
2022-11-19T05:38:34.497Z,19.13
2022-11-19T05:41:02.072Z,20.77
2022-11-19T05:43:29.601Z,19.77
2022-11-19T05:46:00.837Z,19.03
2022-11-19T05:48:28.423Z,19.53
2022-11-19T05:50:56.062Z,18.83
2022-11-19T05:53:23.681Z,18.73
2022-11-19T05:55:51.291Z,19.47
2022-11-19T05:58:18.939Z,19.33
2022-11-19T06:00:46.566Z,18.93
2022-11-19T06:03:15.710Z,19.27
2022-11-19T06:05:43.358Z,19.80
2022-11-19T06:08:10.943Z,19.43
2022-11-19T06:10:38.494Z,19.43
2022-11-19T06:13:06.149Z,18.97
2022-11-19T06:15:33.709Z,17.13
2022-11-19T06:18:01.404Z,17.60
2022-11-19T06:20:30.440Z,18.83
2022-11-19T06:22:58.189Z,18.83
2022-11-19T06:25:25.847Z,19.30
2022-11-19T06:27:53.450Z,18.20
2022-11-19T06:30:21.163Z,18.27
2022-11-19T06:32:48.770Z,18.43
2022-11-19T06:35:16.619Z,18.10
2022-11-19T06:37:45.602Z,18.47
2022-11-19T06:42:41.624Z,17.30
2022-11-19T06:45:11.748Z,17.63
2022-11-19T06:47:40.819Z,18.33
2022-11-19T06:50:10.907Z,18.40
2022-11-19T06:52:38.911Z,17.83
2022-11-19T06:55:08.734Z,18.48
2022-11-19T06:57:36.473Z,17.67
2022-11-19T07:00:04.992Z,18.40
2022-11-19T07:02:32.776Z,17.55
2022-11-19T07:05:00.416Z,19.33
2022-11-19T07:07:28.164Z,18.67
2022-11-19T07:09:55.777Z,19.63
2022-11-19T07:12:24.761Z,17.93
2022-11-19T07:17:19.928Z,17.40
2022-11-19T07:19:47.503Z,18.30
2022-11-19T07:22:15.042Z,18.90
2022-11-19T07:24:42.612Z,16.40
2022-11-19T07:27:10.261Z,18.20
2022-11-19T07:29:39.754Z,18.70
2022-11-19T07:32:07.411Z,18.27
2022-11-19T07:34:35.231Z,18.20
2022-11-19T07:37:02.863Z,17.53
2022-11-19T07:39:30.610Z,16.97
2022-11-19T07:42:15.563Z,16.33
2022-11-19T07:44:44.494Z,16.93
2022-11-19T07:49:39.878Z,16.90
2022-11-19T07:52:07.673Z,17.27
2022-11-19T07:54:35.354Z,18.07
2022-11-19T07:57:03.046Z,17.07
2022-11-19T07:59:30.676Z,17.97
2022-11-19T08:01:59.689Z,18.47
2022-11-19T08:04:29.340Z,17.13
2022-11-19T08:06:57.153Z,17.23
2022-11-19T08:09:24.961Z,18.33
2022-11-19T08:11:52.635Z,18.33
2022-11-19T08:14:20.304Z,17.60
2022-11-19T08:17:05.737Z,18.03
2022-11-19T08:19:34.646Z,19.27
2022-11-19T08:24:29.748Z,18.87
2022-11-19T08:26:57.455Z,18.80
2022-11-19T08:29:25.129Z,18.70
2022-11-19T08:31:52.817Z,18.03
2022-11-19T08:34:20.795Z,18.17
2022-11-19T08:36:50.162Z,17.77
2022-11-19T08:39:18.037Z,18.70
2022-11-19T08:42:03.153Z,17.77
2022-11-19T08:44:30.989Z,19.47
2022-11-19T08:46:58.612Z,18.47
2022-11-19T08:49:26.414Z,19.97
2022-11-19T08:51:57.499Z,19.67
2022-11-19T08:54:25.134Z,18.47
2022-11-19T08:56:52.945Z,17.63
2022-11-19T08:59:21.926Z,17.50
2022-11-19T09:01:50.348Z,17.47
2022-11-19T09:04:18.754Z,16.85
2022-11-19T09:06:46.736Z,17.02
2022-11-19T09:09:15.841Z,17.80
2022-11-19T09:11:43.471Z,17.63
2022-11-19T09:14:11.141Z,20.00
2022-11-19T09:16:38.761Z,16.33
2022-11-19T09:19:06.440Z,16.40
2022-11-19T09:21:34.043Z,16.20
2022-11-19T09:24:01.718Z,15.03
2022-11-19T09:26:30.643Z,16.70
2022-11-19T09:31:25.611Z,14.37
2022-11-19T09:33:54.792Z,14.93
2022-11-19T09:36:22.597Z,15.30
2022-11-19T09:38:50.333Z,14.10
2022-11-19T09:41:45.002Z,14.67
2022-11-19T09:44:32.231Z,14.00
2022-11-19T09:47:13.173Z,14.47
2022-11-19T09:49:46.810Z,14.27
2022-11-19T09:52:17.866Z,13.67
2022-11-19T09:54:49.050Z,14.13
2022-11-19T09:57:26.025Z,13.10
2022-11-19T09:59:58.436Z,13.53
2022-11-19T10:02:26.061Z,13.73
2022-11-19T10:04:53.957Z,13.30
2022-11-19T10:07:30.467Z,13.17
2022-11-19T10:10:12.714Z,12.93
2022-11-19T10:13:11.583Z,14.10
2022-11-19T10:18:18.262Z,14.10
2022-11-19T10:20:59.309Z,12.80
2022-11-19T10:23:36.969Z,15.23
2022-11-19T10:26:10.691Z,18.10
2022-11-19T10:28:42.082Z,14.33
2022-11-19T10:31:17.014Z,12.53
2022-11-19T10:33:51.519Z,13.43
2022-11-19T10:36:25.598Z,12.80
2022-11-19T10:38:58.167Z,13.23
2022-11-19T10:41:36.110Z,13.40
2022-11-19T10:44:37.152Z,12.73
2022-11-19T10:47:06.323Z,13.50
2022-11-19T10:49:38.988Z,12.23
2022-11-19T10:52:09.279Z,11.90
2022-11-19T10:54:38.920Z,13.97
2022-11-19T10:57:13.160Z,13.00
2022-11-19T10:59:42.721Z,13.87
2022-11-19T11:02:26.626Z,12.10
2022-11-19T11:05:09.181Z,12.90
2022-11-19T11:07:50.734Z,11.57
2022-11-19T11:10:38.254Z,12.33
2022-11-19T11:13:46.551Z,12.70
2022-11-19T11:16:19.281Z,11.60
2022-11-19T11:18:47.987Z,12.67
2022-11-19T11:21:33.244Z,12.75
2022-11-19T11:24:02.647Z,11.70
2022-11-19T11:26:33.606Z,11.07
2022-11-19T11:29:03.174Z,11.17
2022-11-19T11:31:35.613Z,10.60
2022-11-19T11:34:04.450Z,10.60
2022-11-19T11:36:35.088Z,11.02
2022-11-19T11:39:05.167Z,10.77
2022-11-19T11:42:04.755Z,11.10
2022-11-19T11:44:29.675Z,11.10
2022-11-19T11:47:01.705Z,11.00
2022-11-19T11:49:32.575Z,10.07
2022-11-19T11:52:16.880Z,10.10
2022-11-19T11:55:01.447Z,9.37
2022-11-19T11:57:31.407Z,9.27
2022-11-19T11:59:59.076Z,8.47
2022-11-19T12:02:31.339Z,9.87
2022-11-19T12:05:02.813Z,9.47
2022-11-19T12:07:56.140Z,9.70
2022-11-19T12:10:35.336Z,9.30
2022-11-19T12:13:39.755Z,8.97
2022-11-19T12:16:14.305Z,8.30
2022-11-19T12:18:50.310Z,13.50
2022-11-19T12:21:31.020Z,12.87
2022-11-19T12:24:11.224Z,9.57
2022-11-19T12:26:52.219Z,10.67
2022-11-19T12:29:27.098Z,8.43
2022-11-19T12:32:10.394Z,8.03
2022-11-19T12:34:52.241Z,8.27
2022-11-19T12:37:33.580Z,7.17
2022-11-19T12:40:12.135Z,7.83
2022-11-19T12:42:51.778Z,7.15
2022-11-19T12:45:30.496Z,7.03
2022-11-19T12:48:17.516Z,6.93
2022-11-19T12:50:54.157Z,6.27
2022-11-19T12:53:41.296Z,6.63
2022-11-19T12:56:25.941Z,7.57
2022-11-19T12:59:05.606Z,6.53
2022-11-19T13:01:36.477Z,6.97
2022-11-19T13:04:11.276Z,6.37
2022-11-19T13:06:45.976Z,6.17
2022-11-19T13:09:18.355Z,6.10
2022-11-19T13:11:52.843Z,6.07
2022-11-19T13:14:28.695Z,6.23
2022-11-19T13:16:58.709Z,5.17
2022-11-19T13:19:30.494Z,5.50
2022-11-19T13:22:03.512Z,4.87
2022-11-19T13:24:36.319Z,5.43
2022-11-19T13:27:06.662Z,5.80
2022-11-19T13:29:43.588Z,5.73
2022-11-19T13:32:21.087Z,5.17
2022-11-19T13:35:01.381Z,6.10
2022-11-19T13:37:41.895Z,6.57
2022-11-19T13:40:21.114Z,8.10
2022-11-19T13:46:02.931Z,6.70
2022-11-19T13:48:33.736Z,6.83
2022-11-19T13:51:10.002Z,6.30
2022-11-19T13:53:43.506Z,4.73
2022-11-19T13:56:15.494Z,4.97
2022-11-19T13:58:48.329Z,5.40
2022-11-19T14:01:43.571Z,4.57
2022-11-19T14:04:33.479Z,4.40
2022-11-19T14:07:23.656Z,4.50
2022-11-19T14:10:04.352Z,4.90
2022-11-19T14:13:01.711Z,4.17
2022-11-19T14:16:10.254Z,4.70
2022-11-19T14:22:07.256Z,4.70
2022-11-19T14:25:12.097Z,4.97
2022-11-19T14:27:41.231Z,5.10
2022-11-19T14:30:15.322Z,5.53
2022-11-19T14:32:49.413Z,5.70
2022-11-19T14:35:38.725Z,8.10
2022-11-19T14:38:25.422Z,6.03
2022-11-19T14:41:04.984Z,6.17
2022-11-19T14:44:07.805Z,5.50
2022-11-19T14:46:36.162Z,5.47
2022-11-19T14:49:07.747Z,5.50
2022-11-19T14:51:38.965Z,5.77
2022-11-19T14:54:19.186Z,5.40
2022-11-19T14:56:49.389Z,5.43
2022-11-19T14:59:24.498Z,5.70
2022-11-19T15:01:58.219Z,5.10
2022-11-19T15:04:33.115Z,5.57
2022-11-19T15:07:01.667Z,5.87
2022-11-19T15:10:03.488Z,5.97
2022-11-19T15:12:48.504Z,6.07
2022-11-19T15:15:38.902Z,5.90
2022-11-19T15:18:31.413Z,6.23
2022-11-19T15:21:12.773Z,6.03
2022-11-19T15:23:47.751Z,5.90
2022-11-19T15:26:22.920Z,6.73
2022-11-19T15:29:06.929Z,6.10
2022-11-19T15:32:05.170Z,6.10
2022-11-19T15:37:46.849Z,6.35
2022-11-19T15:40:17.705Z,5.97
2022-11-19T15:42:51.503Z,5.87
2022-11-19T15:45:22.323Z,5.40
2022-11-19T15:47:54.886Z,5.20
2022-11-19T15:50:24.710Z,5.67
2022-11-19T15:53:00.317Z,6.00
2022-11-19T15:55:30.699Z,5.93
2022-11-19T15:58:03.357Z,6.20
2022-11-19T16:00:31.617Z,6.43
2022-11-19T16:03:03.674Z,6.18
2022-11-19T16:05:32.859Z,6.37
2022-11-19T16:08:09.361Z,6.63
2022-11-19T16:10:41.509Z,6.70
2022-11-19T16:13:40.104Z,6.33
2022-11-19T16:16:33.466Z,6.68
2022-11-19T16:19:02.758Z,6.93
2022-11-19T16:21:37.127Z,7.43
2022-11-19T16:24:26.585Z,7.30
2022-11-19T16:26:56.797Z,7.43
2022-11-19T16:29:26.865Z,8.17
2022-11-19T16:31:59.621Z,8.10
2022-11-19T16:34:32.387Z,8.40
2022-11-19T16:37:00.559Z,7.00
2022-11-19T16:39:30.684Z,7.88
2022-11-19T16:42:19.342Z,7.90
2022-11-19T16:44:49.136Z,8.73
2022-11-19T16:47:22.379Z,9.20
2022-11-19T16:50:00.763Z,9.67
2022-11-19T16:52:46.035Z,9.25
2022-11-19T16:55:40.277Z,7.93
2022-11-19T16:58:16.299Z,7.73
2022-11-19T17:00:48.636Z,7.97
2022-11-19T17:03:34.280Z,8.27
2022-11-19T17:06:05.181Z,7.33
2022-11-19T17:08:34.604Z,7.10
2022-11-19T17:11:30.877Z,8.30
2022-11-19T17:13:58.518Z,7.90
2022-11-19T17:16:27.031Z,8.80
2022-11-19T17:18:54.643Z,7.75
2022-11-19T17:21:28.395Z,7.80
2022-11-19T17:23:56.553Z,8.37
2022-11-19T17:26:27.445Z,7.82
2022-11-19T17:29:01.362Z,7.67
2022-11-19T17:31:29.216Z,7.67
2022-11-19T17:33:58.361Z,7.37
2022-11-19T17:36:27.627Z,7.80
2022-11-19T17:38:55.355Z,8.93
2022-11-19T17:41:39.322Z,7.93
2022-11-19T17:44:35.803Z,8.53
2022-11-19T17:47:07.416Z,8.77
2022-11-19T17:49:46.319Z,8.57
2022-11-19T17:52:22.586Z,8.82
2022-11-19T17:54:50.378Z,8.43
2022-11-19T17:57:18.194Z,9.70
2022-11-19T17:59:45.933Z,8.63
2022-11-19T18:02:15.481Z,8.37
2022-11-19T18:04:44.118Z,8.50
2022-11-19T18:07:12.146Z,9.25
2022-11-19T18:09:41.744Z,9.50
2022-11-19T18:12:14.902Z,9.50
2022-11-19T18:14:42.503Z,9.93
2022-11-19T18:17:11.811Z,9.67
2022-11-19T18:19:39.498Z,10.57
2022-11-19T18:22:07.901Z,10.80
2022-11-19T18:24:35.460Z,10.73
2022-11-19T18:27:04.529Z,11.43
2022-11-19T18:29:32.619Z,11.03
2022-11-19T18:32:00.254Z,10.27
2022-11-19T18:34:27.788Z,9.60
2022-11-19T18:36:55.395Z,8.80
2022-11-19T18:39:23.689Z,8.90
2022-11-19T18:41:52.039Z,9.05
2022-11-19T18:44:35.930Z,8.90
2022-11-19T18:47:05.502Z,8.53
2022-11-19T18:49:34.879Z,7.57
2022-11-19T18:52:02.836Z,8.07
2022-11-19T18:54:30.489Z,8.20
2022-11-19T18:56:58.397Z,8.63
2022-11-19T18:59:27.354Z,8.60
2022-11-19T19:04:24.189Z,8.68
2022-11-19T19:06:52.163Z,9.38
2022-11-19T19:09:21.123Z,11.00
2022-11-19T19:12:12.641Z,13.43
2022-11-19T19:14:42.937Z,14.67
2022-11-19T19:17:11.020Z,12.53
2022-11-19T19:19:39.052Z,13.35
2022-11-19T19:22:07.645Z,14.55
2022-11-19T19:24:35.569Z,15.90
2022-11-19T19:27:03.316Z,16.38
2022-11-19T19:29:30.947Z,14.10
2022-11-19T19:32:00.126Z,12.93
2022-11-19T19:34:29.577Z,12.30
2022-11-19T19:36:57.385Z,12.23
2022-11-19T19:39:24.957Z,12.23
2022-11-19T19:41:53.233Z,13.18
2022-11-19T19:44:20.890Z,13.33
2022-11-19T19:46:49.048Z,12.80
2022-11-19T19:49:18.173Z,12.65
2022-11-19T19:51:45.969Z,11.47
2022-11-19T19:54:13.623Z,10.87
2022-11-19T19:56:41.635Z,10.00
2022-11-19T19:59:10.931Z,11.30
2022-11-19T20:01:38.592Z,11.00
2022-11-19T20:04:08.356Z,10.60
2022-11-19T20:06:40.954Z,12.67
2022-11-19T20:09:09.590Z,11.07
2022-11-19T20:11:38.100Z,10.75
2022-11-19T20:14:06.037Z,11.40
2022-11-19T20:16:34.956Z,11.43
2022-11-19T20:19:03.269Z,10.63
2022-11-19T20:21:35.779Z,9.73
2022-11-19T20:24:11.591Z,9.77
2022-11-19T20:26:40.943Z,10.17
2022-11-19T20:29:08.849Z,9.57
2022-11-19T20:31:36.547Z,9.73
2022-11-19T20:34:06.308Z,9.63
2022-11-19T20:36:36.491Z,9.57
2022-11-19T20:39:06.731Z,10.13
2022-11-19T20:41:52.407Z,9.50
2022-11-19T20:44:24.087Z,9.77
2022-11-19T20:46:53.364Z,10.27
2022-11-19T20:49:23.328Z,9.43
2022-11-19T20:51:52.572Z,9.53
2022-11-19T20:56:50.973Z,10.07
2022-11-19T20:59:19.952Z,9.65
2022-11-19T21:01:48.833Z,11.20
2022-11-19T21:04:16.655Z,11.82
2022-11-19T21:06:44.568Z,12.10
2022-11-19T21:09:12.200Z,13.10
2022-11-19T21:11:41.189Z,12.77
2022-11-19T21:16:36.403Z,13.23
2022-11-19T21:19:04.564Z,11.93
2022-11-19T21:21:32.788Z,12.27
2022-11-19T21:24:00.744Z,10.25
2022-11-19T21:26:29.678Z,12.90
2022-11-19T21:29:00.378Z,13.67
2022-11-19T21:31:38.632Z,13.60
2022-11-19T21:34:07.367Z,12.35
2022-11-19T21:36:35.061Z,12.82
2022-11-19T21:39:03.416Z,13.80
2022-11-19T21:41:31.335Z,13.43
2022-11-19T21:44:00.687Z,14.32
2022-11-19T21:46:28.412Z,12.20
2022-11-19T21:48:56.325Z,11.50
2022-11-19T21:51:25.091Z,13.20
2022-11-19T21:56:22.189Z,13.27
2022-11-19T21:58:50.060Z,12.52
2022-11-19T22:01:19.510Z,11.60
2022-11-19T22:03:47.316Z,12.20
2022-11-19T22:06:15.008Z,11.27
2022-11-19T22:08:43.071Z,11.97
2022-11-19T22:11:31.248Z,11.43
2022-11-19T22:14:01.959Z,12.43
2022-11-19T22:16:33.095Z,12.83
2022-11-19T22:19:00.810Z,12.13
2022-11-19T22:21:29.022Z,13.00
2022-11-19T22:23:56.875Z,12.73
2022-11-19T22:26:24.757Z,15.73
2022-11-19T22:28:52.571Z,14.50
2022-11-19T22:31:20.119Z,14.83
2022-11-19T22:33:51.797Z,13.10
2022-11-19T22:36:21.077Z,14.93
2022-11-19T22:38:48.846Z,16.30
2022-11-19T22:41:18.615Z,16.77
2022-11-19T22:43:46.727Z,15.77
2022-11-19T22:46:15.446Z,16.40
2022-11-19T22:48:43.657Z,14.93
2022-11-19T22:51:15.398Z,15.65
2022-11-19T22:53:43.480Z,14.27
2022-11-19T22:56:14.520Z,15.85
2022-11-19T22:58:42.622Z,14.60
2022-11-19T23:01:16.493Z,14.18
2022-11-19T23:03:44.475Z,14.30
2022-11-19T23:06:13.661Z,15.50
2022-11-19T23:08:41.253Z,14.47
2022-11-19T23:11:09.497Z,14.10
2022-11-19T23:13:39.090Z,16.20
2022-11-19T23:16:09.274Z,14.00
2022-11-19T23:18:39.266Z,14.80
2022-11-19T23:21:09.405Z,14.97
2022-11-19T23:23:38.755Z,14.27
2022-11-19T23:26:08.506Z,12.97
2022-11-19T23:28:37.855Z,14.17
2022-11-19T23:31:06.843Z,14.50
2022-11-19T23:36:03.681Z,13.23
2022-11-19T23:38:31.347Z,13.73
2022-11-19T23:41:01.504Z,12.67
2022-11-19T23:43:30.034Z,13.67
2022-11-19T23:46:04.875Z,13.85
2022-11-19T23:48:33.304Z,14.47
2022-11-19T23:51:02.806Z,13.32
2022-11-19T23:53:30.784Z,11.73
2022-11-19T23:56:00.602Z,12.65
2022-11-19T23:58:28.587Z,11.80
